Time;durP1;ratioP1;P1;durP2;ratioP2;P2;SDS_P1;SDS_P2;PMS_P1;PMS_P2;Temp;Humidity;BMP_temperature;BMP_pressure;BME280_temperature;BME280_humidity;BME280_pressure;Samples;Min_cycle;Max_cycle;Signal;HPM_P1;HPM_P2
2023/01/21 00:00:57;;;;;;;;;24.00;24.00;;;;;;;;5097542;27;12297;-84
2023/01/21 00:03:25;;;;;;;;;49.25;41.50;;;;;;;;5102747;27;11555;-84
2023/01/21 00:05:53;;;;;;;;;24.75;19.50;;;;;;;;5097586;27;11655;-85
2023/01/21 00:08:20;;;;;;;;;16.00;16.00;;;;;;;;5100582;27;11717;-84
2023/01/21 00:10:49;;;;;;;;;15.75;14.00;;;;;;;;5097923;27;11517;-83
2023/01/21 00:13:17;;;;;;;;;20.75;20.00;;;;;;;;5132692;27;11580;-84
2023/01/21 00:15:44;;;;;;;;;25.00;24.75;;;;;;;;5103508;28;11539;-85
2023/01/21 00:18:11;;;;;;;;;21.50;19.00;;;;;;;;5082960;28;11613;-85
2023/01/21 00:20:39;;;;;;;;;21.75;20.50;;;;;;;;5104581;27;11564;-84
2023/01/21 00:23:07;;;;;;;;;18.00;18.00;;;;;;;;5106613;27;11539;-84
2023/01/21 00:25:34;;;;;;;;;21.00;19.00;;;;;;;;5099850;28;11517;-84
2023/01/21 00:28:03;;;;;;;;;16.25;14.25;;;;;;;;5085952;27;11514;-84
2023/01/21 00:30:31;;;;;;;;;25.00;23.75;;;;;;;;5104412;27;11430;-85
2023/01/21 00:32:58;;;;;;;;;17.75;15.75;;;;;;;;5085107;27;11671;-84
2023/01/21 00:35:26;;;;;;;;;22.50;20.50;;;;;;;;5107160;27;11676;-84
2023/01/21 00:37:53;;;;;;;;;19.75;18.75;;;;;;;;5109889;27;11568;-84
2023/01/21 00:40:21;;;;;;;;;19.25;16.00;;;;;;;;5103873;28;11667;-84
2023/01/21 00:42:48;;;;;;;;;17.50;16.00;;;;;;;;5102906;27;11634;-84
2023/01/21 00:45:18;;;;;;;;;24.25;16.25;;;;;;;;5105546;27;11508;-85
2023/01/21 00:47:46;;;;;;;;;19.00;14.75;;;;;;;;5102286;27;11582;-84
2023/01/21 00:50:13;;;;;;;;;21.25;17.00;;;;;;;;5104028;27;11510;-84
2023/01/21 00:52:41;;;;;;;;;17.25;17.25;;;;;;;;5103760;27;11534;-84
2023/01/21 00:55:09;;;;;;;;;19.00;16.00;;;;;;;;5106084;27;11541;-84
2023/01/21 00:57:36;;;;;;;;;17.50;17.50;;;;;;;;5100973;28;11555;-85
2023/01/21 01:00:04;;;;;;;;;11.00;11.00;;;;;;;;5110412;27;11491;-84
2023/01/21 01:02:33;;;;;;;;;15.00;13.25;;;;;;;;5107710;27;11441;-85
2023/01/21 01:05:01;;;;;;;;;5.75;5.50;;;;;;;;5102104;27;11539;-84
2023/01/21 01:07:29;;;;;;;;;11.00;11.00;;;;;;;;5106715;27;11481;-84
2023/01/21 01:09:56;;;;;;;;;11.00;9.50;;;;;;;;5082894;28;11547;-85
2023/01/21 01:12:23;;;;;;;;;17.75;11.50;;;;;;;;5105359;27;11644;-84
2023/01/21 01:14:51;;;;;;;;;11.50;10.00;;;;;;;;5100344;28;12304;-85
2023/01/21 01:17:18;;;;;;;;;13.50;11.00;;;;;;;;5103286;28;11505;-85
2023/01/21 01:19:47;;;;;;;;;17.50;14.00;;;;;;;;5100453;27;11644;-85
2023/01/21 01:22:15;;;;;;;;;11.50;10.75;;;;;;;;5102910;27;11520;-84
2023/01/21 01:24:42;;;;;;;;;14.00;14.00;;;;;;;;5105414;27;11517;-84
2023/01/21 01:27:09;;;;;;;;;15.75;14.00;;;;;;;;5110294;27;11547;-84
2023/01/21 01:29:37;;;;;;;;;15.75;15.75;;;;;;;;5098354;27;11533;-85
2023/01/21 01:32:04;;;;;;;;;18.50;17.25;;;;;;;;5101246;27;11471;-85
2023/01/21 01:34:32;;;;;;;;;13.00;13.00;;;;;;;;5099539;28;11515;-85
2023/01/21 01:37:01;;;;;;;;;18.75;17.00;;;;;;;;5085502;28;11533;-85
2023/01/21 01:39:30;;;;;;;;;19.25;18.00;;;;;;;;5102435;27;11540;-84
2023/01/21 01:41:57;;;;;;;;;15.75;13.50;;;;;;;;5100727;27;11520;-84
2023/01/21 01:45:05;;;;;;;;;20.75;20.75;;;;;;;;5103765;27;11580;-84
2023/01/21 01:47:37;;;;;;;;;15.25;15.25;;;;;;;;5098019;27;11581;-84
2023/01/21 01:50:06;;;;;;;;;22.75;21.50;;;;;;;;5106362;27;11516;-83
2023/01/21 01:52:36;;;;;;;;;23.25;21.00;;;;;;;;5081248;28;11544;-84
2023/01/21 01:55:04;;;;;;;;;25.25;25.25;;;;;;;;5081713;28;11542;-83
2023/01/21 01:57:35;;;;;;;;;25.00;24.50;;;;;;;;5097137;28;11587;-83
2023/01/21 02:00:04;;;;;;;;;21.50;18.00;;;;;;;;5105418;27;11493;-84
2023/01/21 02:02:32;;;;;;;;;21.00;17.50;;;;;;;;5100639;28;11510;-85
2023/01/21 02:05:02;;;;;;;;;20.25;20.25;;;;;;;;5097871;28;11588;-85
2023/01/21 02:07:37;;;;;;;;;24.50;20.50;;;;;;;;5066273;27;11570;-84
2023/01/21 02:10:08;;;;;;;;;19.75;19.75;;;;;;;;5102241;27;11506;-84
2023/01/21 02:12:38;;;;;;;;;16.25;16.25;;;;;;;;5136088;27;11626;-84
2023/01/21 02:15:06;;;;;;;;;27.75;23.50;;;;;;;;5102294;28;11544;-85
2023/01/21 02:17:45;;;;;;;;;10.75;10.75;;;;;;;;5103374;27;11546;-84
2023/01/21 02:20:43;;;;;;;;;21.50;21.50;;;;;;;;5084331;28;11527;-85
2023/01/21 02:23:16;;;;;;;;;17.33;16.00;;;;;;;;5105281;27;11532;-83
2023/01/21 02:26:28;;;;;;;;;22.00;19.00;;;;;;;;5103902;28;11526;-85
2023/01/21 02:29:29;;;;;;;;;17.33;17.33;;;;;;;;5028003;28;11616;-85
2023/01/21 02:32:18;;;;;;;;;16.33;16.33;;;;;;;;5100882;28;12238;-85
2023/01/21 02:34:50;;;;;;;;;24.33;19.67;;;;;;;;5100749;28;11521;-84
2023/01/21 02:37:23;;;;;;;;;36.00;24.00;;;;;;;;5101346;28;11566;-86
2023/01/21 02:40:17;;;;;;;;;19.00;13.00;;;;;;;;5104425;27;11571;-84
2023/01/21 02:42:47;;;;;;;;;20.67;20.67;;;;;;;;5097698;28;11548;-83
2023/01/21 02:45:21;;;;;;;;;26.33;20.67;;;;;;;;5109384;27;11648;-84
2023/01/21 02:47:57;;;;;;;;;21.33;20.33;;;;;;;;5093655;27;11559;-84
2023/01/21 02:50:29;;;;;;;;;25.00;20.00;;;;;;;;5098559;27;11516;-84
2023/01/21 02:52:57;;;;;;;;;36.00;23.33;;;;;;;;5100184;27;11641;-84
2023/01/21 02:55:29;;;;;;;;;19.00;16.67;;;;;;;;5107624;27;11563;-84
2023/01/21 02:57:58;;;;;;;;;16.33;16.33;;;;;;;;5100410;27;11536;-83
2023/01/21 03:00:28;;;;;;;;;23.00;18.67;;;;;;;;5118097;27;11466;-84
2023/01/21 03:03:23;;;;;;;;;24.00;18.33;;;;;;;;5102159;27;8983;-85
2023/01/21 03:06:17;;;;;;;;;13.00;13.00;;;;;;;;5132365;27;11554;-84
2023/01/21 03:08:48;;;;;;;;;20.00;15.67;;;;;;;;5098317;27;8903;-84
2023/01/21 03:11:17;;;;;;;;;20.00;20.00;;;;;;;;5101926;27;8834;-84
2023/01/21 03:16:57;;;;;;;;;16.00;16.00;;;;;;;;5104883;27;8828;-84
2023/01/21 03:19:30;;;;;;;;;19.33;19.33;;;;;;;;5095281;28;8870;-84
2023/01/21 03:22:00;;;;;;;;;21.00;20.00;;;;;;;;5109965;27;11495;-84
2023/01/21 03:24:28;;;;;;;;;18.33;16.33;;;;;;;;5101465;27;8852;-85
2023/01/21 03:26:58;;;;;;;;;10.33;10.33;;;;;;;;5102115;27;8883;-84
2023/01/21 03:29:28;;;;;;;;;20.67;18.00;;;;;;;;5083001;27;8961;-85
2023/01/21 03:31:58;;;;;;;;;18.00;15.00;;;;;;;;5099488;27;8765;-85
2023/01/21 03:34:28;;;;;;;;;22.67;16.33;;;;;;;;5101599;27;8880;-83
2023/01/21 03:37:01;;;;;;;;;17.33;16.33;;;;;;;;5105686;27;8930;-83
2023/01/21 03:39:36;;;;;;;;;15.67;14.67;;;;;;;;5099264;28;8838;-85
2023/01/21 03:42:04;;;;;;;;;21.67;16.33;;;;;;;;5099684;28;8885;-84
2023/01/21 03:44:31;;;;;;;;;27.67;20.33;;;;;;;;5096018;28;8840;-85
2023/01/21 03:47:04;;;;;;;;;14.33;14.33;;;;;;;;5103069;27;8860;-84
2023/01/21 03:49:34;;;;;;;;;15.33;13.67;;;;;;;;5103907;27;8873;-84
2023/01/21 03:52:04;;;;;;;;;17.67;13.33;;;;;;;;5102834;27;8830;-85
2023/01/21 03:54:32;;;;;;;;;19.33;18.67;;;;;;;;5102858;27;8841;-85
2023/01/21 03:56:59;;;;;;;;;22.67;16.33;;;;;;;;5104759;27;8865;-85
2023/01/21 03:59:27;;;;;;;;;18.00;18.00;;;;;;;;5094199;28;8875;-84
2023/01/21 04:01:54;;;;;;;;;11.00;10.00;;;;;;;;5099081;27;8778;-84
2023/01/21 04:04:21;;;;;;;;;28.33;23.00;;;;;;;;5106375;27;9568;-85
2023/01/21 04:06:49;;;;;;;;;18.33;18.33;;;;;;;;5094955;27;8871;-83
2023/01/21 04:09:18;;;;;;;;;24.67;24.67;;;;;;;;5099852;28;8854;-85
2023/01/21 04:11:46;;;;;;;;;18.00;18.00;;;;;;;;5099551;28;8844;-84
2023/01/21 04:14:13;;;;;;;;;22.00;18.67;;;;;;;;5083257;27;8836;-83
2023/01/21 04:16:41;;;;;;;;;17.67;17.00;;;;;;;;5102289;28;8932;-84
2023/01/21 04:19:08;;;;;;;;;21.67;20.00;;;;;;;;5104031;28;8868;-84
2023/01/21 04:21:36;;;;;;;;;23.00;23.00;;;;;;;;5101155;27;8860;-84
2023/01/21 04:24:03;;;;;;;;;24.00;16.67;;;;;;;;5100815;27;8871;-84
2023/01/21 04:26:35;;;;;;;;;24.00;22.67;;;;;;;;5099818;28;8830;-85
2023/01/21 04:29:02;;;;;;;;;25.00;19.67;;;;;;;;5097593;28;8814;-84
2023/01/21 04:31:30;;;;;;;;;22.00;18.00;;;;;;;;5100272;28;8797;-85
2023/01/21 04:33:57;;;;;;;;;32.67;18.33;;;;;;;;5106165;28;8846;-84
2023/01/21 04:36:25;;;;;;;;;31.33;27.00;;;;;;;;5104041;27;8887;-84
2023/01/21 04:38:52;;;;;;;;;15.00;13.33;;;;;;;;5104496;28;8853;-83
2023/01/21 04:41:19;;;;;;;;;26.33;26.33;;;;;;;;5102109;28;8848;-83
2023/01/21 04:43:48;;;;;;;;;26.33;20.00;;;;;;;;5097536;28;8883;-83
2023/01/21 04:46:16;;;;;;;;;30.33;24.33;;;;;;;;5106842;27;8850;-85
2023/01/21 04:48:43;;;;;;;;;26.67;23.67;;;;;;;;5097988;27;8846;-84
2023/01/21 04:51:11;;;;;;;;;24.33;24.33;;;;;;;;5104637;27;8822;-84
2023/01/21 04:53:38;;;;;;;;;23.00;18.33;;;;;;;;5102353;28;8875;-85
2023/01/21 04:56:06;;;;;;;;;31.67;27.67;;;;;;;;5102631;27;8849;-84
2023/01/21 04:58:33;;;;;;;;;27.00;24.33;;;;;;;;5101120;28;8891;-84
2023/01/21 05:01:02;;;;;;;;;29.00;29.00;;;;;;;;5082386;28;8793;-84
2023/01/21 05:03:30;;;;;;;;;32.00;25.00;;;;;;;;5100466;28;8833;-84
2023/01/21 05:05:57;;;;;;;;;29.00;26.33;;;;;;;;5098520;27;8893;-84
2023/01/21 05:08:25;;;;;;;;;32.67;27.33;;;;;;;;5100858;27;8857;-84
2023/01/21 05:10:53;;;;;;;;;31.00;26.67;;;;;;;;5115641;27;9479;-84
2023/01/21 05:13:20;;;;;;;;;28.33;25.67;;;;;;;;5106872;27;8876;-85
2023/01/21 05:15:48;;;;;;;;;34.33;29.00;;;;;;;;5102688;27;8857;-85
2023/01/21 05:18:17;;;;;;;;;30.00;26.00;;;;;;;;5106118;27;9040;-85
2023/01/21 05:20:44;;;;;;;;;32.00;29.33;;;;;;;;5111051;27;8850;-85
2023/01/21 05:23:11;;;;;;;;;33.00;29.00;;;;;;;;5083976;28;8825;-85
2023/01/21 05:25:39;;;;;;;;;36.33;27.33;;;;;;;;5086383;28;8846;-85
2023/01/21 05:28:06;;;;;;;;;32.00;30.00;;;;;;;;5106872;27;8861;-84
2023/01/21 05:30:34;;;;;;;;;37.67;32.67;;;;;;;;5066962;27;8784;-85
2023/01/21 05:33:01;;;;;;;;;38.00;30.67;;;;;;;;5095955;28;8840;-85
2023/01/21 05:35:30;;;;;;;;;32.67;32.67;;;;;;;;5105288;27;8954;-85
2023/01/21 05:37:58;;;;;;;;;38.67;36.00;;;;;;;;5102169;28;9012;-85
2023/01/21 05:40:25;;;;;;;;;31.67;27.00;;;;;;;;5105186;27;8892;-84
2023/01/21 05:42:52;;;;;;;;;29.33;26.67;;;;;;;;5106663;27;8944;-85
2023/01/21 05:45:20;;;;;;;;;30.00;27.67;;;;;;;;5105792;27;8980;-84
2023/01/21 05:47:47;;;;;;;;;43.00;39.00;;;;;;;;5087370;27;8847;-85
2023/01/21 05:50:14;;;;;;;;;42.33;38.33;;;;;;;;5083838;27;8856;-85
2023/01/21 05:52:43;;;;;;;;;37.00;28.00;;;;;;;;5106402;27;8861;-84
2023/01/21 05:55:11;;;;;;;;;60.67;46.00;;;;;;;;5101606;27;8861;-84
2023/01/21 05:57:38;;;;;;;;;70.67;54.00;;;;;;;;5097000;28;8873;-84
2023/01/21 06:00:07;;;;;;;;;53.33;47.33;;;;;;;;5099877;27;8886;-84
2023/01/21 06:02:35;;;;;;;;;44.67;42.67;;;;;;;;5099482;28;8833;-84
2023/01/21 06:05:02;;;;;;;;;44.00;41.33;;;;;;;;5099192;27;8845;-85
2023/01/21 06:07:30;;;;;;;;;48.67;42.33;;;;;;;;5104366;27;8870;-85
2023/01/21 06:09:59;;;;;;;;;58.00;45.33;;;;;;;;5100257;28;8871;-85
2023/01/21 06:12:27;;;;;;;;;48.33;41.00;;;;;;;;5097199;27;8876;-85
2023/01/21 06:14:54;;;;;;;;;44.33;42.67;;;;;;;;5102045;27;8891;-87
2023/01/21 06:17:22;;;;;;;;;37.00;31.67;;;;;;;;5103720;28;8857;-83
2023/01/21 06:19:49;;;;;;;;;54.67;49.33;;;;;;;;5104018;27;8848;-86
2023/01/21 06:22:18;;;;;;;;;42.00;34.00;;;;;;;;5103437;27;8868;-85
2023/01/21 06:24:45;;;;;;;;;42.00;37.33;;;;;;;;5103550;27;8844;-85
2023/01/21 06:27:14;;;;;;;;;39.33;36.00;;;;;;;;5103262;27;9193;-83
2023/01/21 06:29:41;;;;;;;;;45.67;42.33;;;;;;;;5105151;27;8865;-83
2023/01/21 06:32:09;;;;;;;;;31.33;26.67;;;;;;;;5083939;27;8824;-82
2023/01/21 06:34:36;;;;;;;;;45.33;39.00;;;;;;;;5098003;28;8892;-81
2023/01/21 06:37:04;;;;;;;;;48.00;42.67;;;;;;;;5103188;27;9006;-82
2023/01/21 06:39:31;;;;;;;;;49.67;41.67;;;;;;;;5101771;27;8887;-83
2023/01/21 06:41:59;;;;;;;;;38.67;35.00;;;;;;;;5097146;28;8864;-83
2023/01/21 06:44:28;;;;;;;;;53.00;44.00;;;;;;;;5098847;28;8870;-83
2023/01/21 06:46:56;;;;;;;;;40.00;39.00;;;;;;;;5103536;27;8880;-82
2023/01/21 06:49:23;;;;;;;;;47.67;35.67;;;;;;;;5103655;27;8990;-82
2023/01/21 06:51:51;;;;;;;;;37.33;36.33;;;;;;;;5101462;27;8859;-82
2023/01/21 06:54:18;;;;;;;;;37.33;35.33;;;;;;;;5107266;27;9001;-82
2023/01/21 06:56:46;;;;;;;;;48.00;40.33;;;;;;;;5115021;27;8857;-83
2023/01/21 06:59:14;;;;;;;;;41.33;34.33;;;;;;;;5099587;28;8849;-82
2023/01/21 07:01:43;;;;;;;;;43.67;40.33;;;;;;;;5106070;27;8810;-82
2023/01/21 07:04:10;;;;;;;;;40.67;35.67;;;;;;;;5094356;28;8890;-81
2023/01/21 07:06:37;;;;;;;;;39.33;36.33;;;;;;;;5100892;27;8888;-83
2023/01/21 07:09:05;;;;;;;;;44.00;38.33;;;;;;;;5102073;27;8837;-83
2023/01/21 07:11:34;;;;;;;;;48.33;41.67;;;;;;;;5109978;27;8818;-83
2023/01/21 07:14:01;;;;;;;;;41.33;36.00;;;;;;;;5105450;27;8883;-79
2023/01/21 07:16:29;;;;;;;;;41.00;37.33;;;;;;;;5095910;28;8829;-82
2023/01/21 07:19:00;;;;;;;;;36.00;34.00;;;;;;;;5101340;28;9309;-81
2023/01/21 07:21:27;;;;;;;;;49.33;44.33;;;;;;;;5091954;27;8865;-82
2023/01/21 07:23:55;;;;;;;;;37.33;37.33;;;;;;;;5102407;27;8883;-75
2023/01/21 07:26:23;;;;;;;;;45.00;37.67;;;;;;;;5097670;27;8922;-73
2023/01/21 07:28:50;;;;;;;;;47.33;40.67;;;;;;;;5108673;28;8828;-72
2023/01/21 07:31:18;;;;;;;;;41.33;39.00;;;;;;;;5099942;27;8824;-75
2023/01/21 07:33:45;;;;;;;;;50.00;44.00;;;;;;;;5101419;28;9006;-74
2023/01/21 07:36:14;;;;;;;;;38.33;36.67;;;;;;;;5104296;27;8853;-74
2023/01/21 07:38:41;;;;;;;;;38.67;34.33;;;;;;;;5097554;28;9039;-71
2023/01/21 07:41:08;;;;;;;;;40.33;33.33;;;;;;;;5097589;28;8850;-71
2023/01/21 07:43:36;;;;;;;;;64.00;49.33;;;;;;;;5103568;27;8840;-71
2023/01/21 07:46:03;;;;;;;;;44.67;37.00;;;;;;;;5097836;28;9613;-70
2023/01/21 07:48:30;;;;;;;;;42.67;35.67;;;;;;;;5132026;27;8838;-71
2023/01/21 07:50:58;;;;;;;;;42.00;42.00;;;;;;;;5103934;27;8853;-71
2023/01/21 07:53:27;;;;;;;;;41.67;39.00;;;;;;;;5097331;28;8871;-71
2023/01/21 07:55:54;;;;;;;;;46.00;44.33;;;;;;;;5101153;27;9266;-72
2023/01/21 07:58:21;;;;;;;;;45.33;40.33;;;;;;;;5101814;27;8854;-71
2023/01/21 08:00:49;;;;;;;;;48.33;39.67;;;;;;;;5103136;27;9595;-71
2023/01/21 08:03:18;;;;;;;;;52.00;41.67;;;;;;;;5100612;28;8841;-71
2023/01/21 08:05:46;;;;;;;;;54.67;47.00;;;;;;;;5102107;27;8868;-72
2023/01/21 08:08:14;;;;;;;;;56.33;44.33;;;;;;;;5078574;27;8821;-71
2023/01/21 08:10:43;;;;;;;;;52.00;44.00;;;;;;;;5098655;27;8860;-75
2023/01/21 08:13:10;;;;;;;;;53.67;41.33;;;;;;;;5099780;28;8860;-75
2023/01/21 08:15:37;;;;;;;;;53.00;45.33;;;;;;;;5103908;27;9665;-74
2023/01/21 08:18:05;;;;;;;;;62.67;52.00;;;;;;;;5097005;27;8834;-75
2023/01/21 08:20:33;;;;;;;;;63.67;50.00;;;;;;;;5099821;28;8846;-73
2023/01/21 08:23:01;;;;;;;;;65.33;52.00;;;;;;;;5078307;28;8849;-73
2023/01/21 08:25:28;;;;;;;;;58.33;48.67;;;;;;;;5095877;28;8860;-73
2023/01/21 08:27:59;;;;;;;;;40.67;38.67;;;;;;;;5100090;27;8842;-73
2023/01/21 08:30:26;;;;;;;;;55.33;45.67;;;;;;;;5102062;28;8773;-73
2023/01/21 08:32:53;;;;;;;;;65.33;50.67;;;;;;;;5096804;28;8869;-75
2023/01/21 08:35:21;;;;;;;;;60.67;49.00;;;;;;;;5094511;27;8828;-73
2023/01/21 08:37:48;;;;;;;;;50.67;45.00;;;;;;;;5100913;27;8861;-73
2023/01/21 08:40:16;;;;;;;;;62.67;51.00;;;;;;;;5101824;28;8840;-73
2023/01/21 08:42:43;;;;;;;;;50.67;45.33;;;;;;;;5099384;27;8953;-73
2023/01/21 08:45:13;;;;;;;;;54.67;43.67;;;;;;;;5101208;28;8871;-74
2023/01/21 08:47:40;;;;;;;;;53.33;45.67;;;;;;;;5102598;28;8857;-73
2023/01/21 08:50:08;;;;;;;;;58.67;44.00;;;;;;;;5108170;27;9666;-74
2023/01/21 08:52:35;;;;;;;;;56.00;49.00;;;;;;;;5109936;27;8848;-74
2023/01/21 08:55:03;;;;;;;;;59.67;45.33;;;;;;;;5098230;28;8927;-74
2023/01/21 08:57:30;;;;;;;;;57.67;47.00;;;;;;;;5096920;28;8829;-73
2023/01/21 08:59:58;;;;;;;;;38.33;35.67;;;;;;;;5102592;27;8860;-74
2023/01/21 09:02:26;;;;;;;;;55.00;46.33;;;;;;;;5084143;28;8797;-72
2023/01/21 09:04:54;;;;;;;;;55.00;45.00;;;;;;;;5105638;27;9245;-70
2023/01/21 09:07:21;;;;;;;;;38.67;38.67;;;;;;;;5107865;27;9063;-70
2023/01/21 09:09:48;;;;;;;;;61.00;47.33;;;;;;;;5102879;28;8857;-71
2023/01/21 09:12:16;;;;;;;;;59.00;45.00;;;;;;;;5105201;27;8841;-70
2023/01/21 09:14:43;;;;;;;;;48.67;43.00;;;;;;;;5100951;27;8888;-71
2023/01/21 09:17:10;;;;;;;;;62.67;49.00;;;;;;;;5097824;28;8864;-70
2023/01/21 09:19:39;;;;;;;;;51.33;44.00;;;;;;;;5100028;27;8841;-71
2023/01/21 09:22:08;;;;;;;;;55.00;42.67;;;;;;;;5101836;27;8842;-70
2023/01/21 09:24:35;;;;;;;;;60.67;49.33;;;;;;;;5104561;27;8842;-71
2023/01/21 09:27:03;;;;;;;;;54.33;44.33;;;;;;;;5104180;27;8842;-71
2023/01/21 09:29:30;;;;;;;;;55.67;48.33;;;;;;;;5085466;28;8848;-69
2023/01/21 09:31:58;;;;;;;;;56.33;45.00;;;;;;;;5104584;27;8822;-69
2023/01/21 09:34:25;;;;;;;;;68.33;54.33;;;;;;;;5106730;27;8924;-70
2023/01/21 09:36:54;;;;;;;;;74.33;58.33;;;;;;;;5106913;27;8945;-68
2023/01/21 09:39:21;;;;;;;;;75.33;59.67;;;;;;;;5106797;27;8944;-68
2023/01/21 09:41:50;;;;;;;;;69.67;55.67;;;;;;;;5102977;27;8856;-68
2023/01/21 09:44:23;;;;;;;;;67.67;55.00;;;;;;;;5098992;27;9735;-69
2023/01/21 09:46:56;;;;;;;;;57.33;46.33;;;;;;;;5104565;27;8864;-71
2023/01/21 09:49:26;;;;;;;;;50.67;46.67;;;;;;;;5100990;27;8865;-74
2023/01/21 09:52:04;;;;;;;;;42.00;41.33;;;;;;;;5101723;27;8880;-70
2023/01/21 09:54:33;;;;;;;;;63.00;49.67;;;;;;;;5095307;28;8861;-71
2023/01/21 09:57:19;;;;;;;;;59.67;46.67;;;;;;;;5094925;28;8837;-73
2023/01/21 09:59:59;;;;;;;;;52.33;46.67;;;;;;;;5083596;27;8846;-71
2023/01/21 10:02:32;;;;;;;;;57.67;48.33;;;;;;;;5101839;27;8786;-71
2023/01/21 10:05:18;;;;;;;;;64.00;53.00;;;;;;;;5100162;27;8852;-73
2023/01/21 10:07:52;;;;;;;;;72.33;54.00;;;;;;;;5123916;27;8874;-72
2023/01/21 10:10:24;;;;;;;;;68.33;53.67;;;;;;;;5097006;27;8841;-71
2023/01/21 10:13:08;;;;;;;;;44.00;41.67;;;;;;;;5126183;27;8852;-70
2023/01/21 10:15:48;;;;;;;;;53.67;46.00;;;;;;;;5105709;27;8828;-71
2023/01/21 10:18:19;;;;;;;;;59.33;47.67;;;;;;;;5100924;27;9345;-71
2023/01/21 10:20:50;;;;;;;;;61.33;45.67;;;;;;;;5101285;27;8846;-71
2023/01/21 10:23:22;;;;;;;;;53.67;45.67;;;;;;;;5103994;27;8880;-71
2023/01/21 10:25:50;;;;;;;;;60.33;46.33;;;;;;;;5097042;28;8864;-71
2023/01/21 10:28:22;;;;;;;;;46.33;43.33;;;;;;;;5097880;28;8971;-71
2023/01/21 10:30:51;;;;;;;;;46.67;44.00;;;;;;;;5096295;27;8868;-71
2023/01/21 10:33:22;;;;;;;;;55.67;43.33;;;;;;;;5097056;28;8871;-70
2023/01/21 10:36:17;;;;;;;;;55.33;46.67;;;;;;;;5100586;27;8948;-72
2023/01/21 10:38:54;;;;;;;;;52.67;45.00;;;;;;;;5043930;28;9652;-71
2023/01/21 10:41:31;;;;;;;;;62.67;49.67;;;;;;;;5096337;27;8860;-72
2023/01/21 10:44:05;;;;;;;;;51.00;44.00;;;;;;;;5102896;27;8856;-72
2023/01/21 10:46:39;;;;;;;;;56.33;45.67;;;;;;;;5100080;27;8919;-71
2023/01/21 10:49:20;;;;;;;;;55.33;44.33;;;;;;;;5101887;27;8860;-72
2023/01/21 10:51:51;;;;;;;;;66.00;53.33;;;;;;;;5103959;27;8852;-70
2023/01/21 10:54:26;;;;;;;;;57.00;47.33;;;;;;;;5105004;27;8848;-71
2023/01/21 10:56:59;;;;;;;;;57.33;48.67;;;;;;;;5091759;28;8864;-72
2023/01/21 10:59:29;;;;;;;;;65.67;52.33;;;;;;;;5097222;27;8845;-72
2023/01/21 11:02:06;;;;;;;;;57.00;47.00;;;;;;;;5093106;27;8782;-72
2023/01/21 11:04:34;;;;;;;;;65.67;51.67;;;;;;;;5101962;27;8841;-72
2023/01/21 11:07:03;;;;;;;;;64.00;51.67;;;;;;;;5099224;27;8952;-72
2023/01/21 11:09:34;;;;;;;;;57.67;44.00;;;;;;;;5101758;28;8856;-70
2023/01/21 11:12:02;;;;;;;;;57.67;44.67;;;;;;;;5101812;27;11593;-70
2023/01/21 11:14:29;;;;;;;;;66.33;49.00;;;;;;;;5092464;28;8853;-73
2023/01/21 11:16:57;;;;;;;;;55.67;45.00;;;;;;;;5090861;28;8873;-73
2023/01/21 11:19:26;;;;;;;;;45.33;39.33;;;;;;;;5095363;28;11555;-73
2023/01/21 11:22:03;;;;;;;;;55.67;45.00;;;;;;;;5105014;27;11507;-75
2023/01/21 11:24:33;;;;;;;;;51.67;44.67;;;;;;;;5098891;27;11572;-72
2023/01/21 11:27:01;;;;;;;;;50.00;38.33;;;;;;;;5100436;27;11553;-72
2023/01/21 11:29:39;;;;;;;;;59.67;45.00;;;;;;;;5095388;27;11621;-72
2023/01/21 11:32:22;;;;;;;;;31.75;28.25;;;;;;;;5097500;27;11476;-72
2023/01/21 11:34:52;;;;;;;;;53.33;44.00;;;;;;;;5100092;27;11613;-74
2023/01/21 11:37:23;;;;;;;;;69.33;54.33;;;;;;;;5097158;27;11577;-73
2023/01/21 11:39:56;;;;;;;;;41.75;36.25;;;;;;;;5098920;27;8932;-73
2023/01/21 11:42:24;;;;;;;;;59.25;48.75;;;;;;;;5102339;27;11566;-73
2023/01/21 11:44:53;;;;;;;;;46.25;40.25;;;;;;;;5099932;28;11555;-73
2023/01/21 11:47:29;;;;;;;;;51.25;38.00;;;;;;;;5095691;28;11626;-74
2023/01/21 11:50:05;;;;;;;;;52.75;43.25;;;;;;;;5101173;27;11514;-75
2023/01/21 11:52:32;;;;;;;;;51.00;41.25;;;;;;;;5099793;27;11560;-74
2023/01/21 11:55:20;;;;;;;;;51.00;41.75;;;;;;;;5094975;27;11591;-71
2023/01/21 11:57:51;;;;;;;;;52.25;43.25;;;;;;;;5097199;27;11563;-72
2023/01/21 12:00:20;;;;;;;;;48.75;42.75;;;;;;;;5096623;27;12351;-72
2023/01/21 12:02:50;;;;;;;;;60.25;46.50;;;;;;;;5102841;27;12287;-71
2023/01/21 12:05:25;;;;;;;;;48.00;40.00;;;;;;;;5098764;27;11529;-70
2023/01/21 12:07:53;;;;;;;;;53.00;42.50;;;;;;;;5096067;28;11518;-71
2023/01/21 12:10:37;;;;;;;;;48.75;42.00;;;;;;;;5098298;28;11602;-71
2023/01/21 12:13:20;;;;;;;;;48.50;43.25;;;;;;;;5092328;28;11547;-70
2023/01/21 12:16:16;;;;;;;;;57.00;43.25;;;;;;;;5094427;28;11586;-72
2023/01/21 12:19:07;;;;;;;;;39.75;37.00;;;;;;;;5097283;28;11561;-73
2023/01/21 12:21:42;;;;;;;;;37.00;35.50;;;;;;;;5108175;27;11522;-73
2023/01/21 12:24:20;;;;;;;;;40.50;36.50;;;;;;;;5104297;27;11563;-72
2023/01/21 12:26:53;;;;;;;;;32.00;29.00;;;;;;;;5109363;27;11583;-72
2023/01/21 12:29:33;;;;;;;;;34.25;34.25;;;;;;;;5102476;28;11655;-72
2023/01/21 12:32:04;;;;;;;;;44.00;39.00;;;;;;;;5107382;27;11521;-72
2023/01/21 12:34:35;;;;;;;;;41.75;34.00;;;;;;;;5104379;28;12335;-71
2023/01/21 12:37:05;;;;;;;;;44.50;31.25;;;;;;;;5110523;27;12283;-72
2023/01/21 12:39:34;;;;;;;;;34.50;31.75;;;;;;;;5105684;27;12394;-72
2023/01/21 12:42:07;;;;;;;;;37.50;34.25;;;;;;;;5107889;27;11007;-72
2023/01/21 12:44:39;;;;;;;;;54.75;42.50;;;;;;;;5105311;27;11583;-72
2023/01/21 12:47:13;;;;;;;;;40.00;36.25;;;;;;;;5114412;27;11556;-72
2023/01/21 12:49:59;;;;;;;;;58.25;46.75;;;;;;;;5113876;27;11486;-72
2023/01/21 12:52:30;;;;;;;;;60.50;50.00;;;;;;;;5101663;28;11528;-72
2023/01/21 12:55:02;;;;;;;;;34.25;34.25;;;;;;;;5104655;28;11536;-72
2023/01/21 12:57:37;;;;;;;;;35.75;32.25;;;;;;;;5108643;27;11503;-72
2023/01/21 13:00:12;;;;;;;;;36.75;34.50;;;;;;;;5105736;27;11538;-73
2023/01/21 13:02:45;;;;;;;;;42.50;37.75;;;;;;;;5108969;27;11503;-72
2023/01/21 13:05:15;;;;;;;;;47.50;39.00;;;;;;;;5107125;27;11553;-72
2023/01/21 13:07:47;;;;;;;;;50.50;42.00;;;;;;;;5114881;27;11878;-72
2023/01/21 13:10:18;;;;;;;;;44.00;38.75;;;;;;;;5106750;27;12327;-72
2023/01/21 13:12:51;;;;;;;;;47.25;39.00;;;;;;;;5106878;27;11646;-72
2023/01/21 13:15:22;;;;;;;;;46.25;36.25;;;;;;;;5107487;27;11519;-72
2023/01/21 13:17:52;;;;;;;;;37.25;33.00;;;;;;;;5106297;27;11586;-73
2023/01/21 13:20:21;;;;;;;;;22.50;22.50;;;;;;;;5113039;27;11682;-72
2023/01/21 13:22:59;;;;;;;;;44.00;35.50;;;;;;;;5107545;27;11547;-72
2023/01/21 13:25:32;;;;;;;;;39.50;36.25;;;;;;;;5113694;27;11537;-73
2023/01/21 13:28:07;;;;;;;;;38.00;35.75;;;;;;;;5107283;27;11561;-72
2023/01/21 13:30:40;;;;;;;;;35.25;33.00;;;;;;;;5110401;27;11446;-73
2023/01/21 13:33:20;;;;;;;;;38.00;31.00;;;;;;;;5105687;27;11529;-73
2023/01/21 13:35:56;;;;;;;;;36.00;29.00;;;;;;;;5111716;27;11628;-74
2023/01/21 13:38:30;;;;;;;;;27.75;27.50;;;;;;;;5102133;27;11542;-75
2023/01/21 13:41:10;;;;;;;;;36.50;32.00;;;;;;;;5105095;27;11567;-77
2023/01/21 13:43:53;;;;;;;;;34.25;31.75;;;;;;;;5101722;27;11585;-76
2023/01/21 13:46:40;;;;;;;;;29.75;27.00;;;;;;;;5100928;28;11652;-76
2023/01/21 13:49:35;;;;;;;;;21.25;14.50;;;;;;;;5103368;27;11651;-76
2023/01/21 13:52:08;;;;;;;;;35.00;27.25;;;;;;;;5100574;28;11543;-77
2023/01/21 13:54:50;;;;;;;;;19.50;19.50;;;;;;;;5100036;27;11563;-73
2023/01/21 13:57:37;;;;;;;;;36.25;31.25;;;;;;;;5095484;28;11540;-73
2023/01/21 14:00:11;;;;;;;;;27.00;24.75;;;;;;;;5104676;27;11528;-73
2023/01/21 14:02:44;;;;;;;;;35.25;27.25;;;;;;;;5101855;27;11541;-73
2023/01/21 14:05:16;;;;;;;;;31.75;31.75;;;;;;;;5102244;28;11627;-73
2023/01/21 14:07:47;;;;;;;;;35.00;29.75;;;;;;;;5105321;27;11529;-73
2023/01/21 14:10:26;;;;;;;;;35.75;30.00;;;;;;;;5099690;28;11630;-73
2023/01/21 14:13:23;;;;;;;;;42.75;38.25;;;;;;;;5106573;27;11516;-73
2023/01/21 14:16:23;;;;;;;;;34.00;30.00;;;;;;;;5093949;28;11559;-73
2023/01/21 14:19:12;;;;;;;;;30.00;26.75;;;;;;;;5095577;28;11533;-72
2023/01/21 14:22:03;;;;;;;;;34.25;30.75;;;;;;;;5092729;27;11532;-72
2023/01/21 14:24:43;;;;;;;;;28.25;24.50;;;;;;;;5101271;27;11531;-72
2023/01/21 14:27:20;;;;;;;;;25.75;23.00;;;;;;;;5098289;27;11562;-72
2023/01/21 14:29:52;;;;;;;;;29.00;25.00;;;;;;;;5105319;27;11551;-72
2023/01/21 14:32:24;;;;;;;;;27.50;22.50;;;;;;;;5102311;27;11503;-72
2023/01/21 14:35:07;;;;;;;;;32.25;30.50;;;;;;;;5099561;28;11533;-72
2023/01/21 14:37:40;;;;;;;;;28.50;25.00;;;;;;;;5102565;27;11524;-72
2023/01/21 14:40:15;;;;;;;;;29.75;23.00;;;;;;;;5100904;28;11540;-73
2023/01/21 14:42:44;;;;;;;;;26.00;26.00;;;;;;;;5103228;27;11499;-73
2023/01/21 14:45:12;;;;;;;;;29.75;23.75;;;;;;;;5106824;27;11462;-73
2023/01/21 14:47:50;;;;;;;;;27.25;24.75;;;;;;;;5104012;27;12371;-72
2023/01/21 14:50:59;;;;;;;;;26.25;24.75;;;;;;;;5101827;28;11515;-73